Shaw, Minnesota
Current Conditions -  °F | °C
As of 10:55 PM on Friday 19 Dec 2014 (Local Time) from KDLH Reporting Station
Haze Haze  
Wind Chill: 17°   Ceiling: 700
Heat Index: 25°   Visibility: 5mi
Dew Point: 22°   Wind: 7mph
Humidity: 88%   Direction: 160°SSE
Pressure: 30.13"   Gusts: NA
Location:  47.068°N, 92.4547°W
Report Text: KDLH 200455Z 16006KT 5SM BR OVC007 M04/M06 A3013 RMK AO2 SNE43 SLP227 P0000 T10391056
Loading
Personal Weather Stations






























Interactive Weather Map New forecast layout! Learn more

10-Day Weather Forecast

Advertisements
Track Severe Weather on mobile